createdAt,value
2022-09-10T00:01:19.022Z,101547.05
2022-09-10T00:03:47.195Z,101541.85
2022-09-10T00:06:14.979Z,101541.69
2022-09-10T00:08:42.907Z,101540.94
2022-09-10T00:11:11.216Z,101548.16
2022-09-10T00:13:40.466Z,101538.23
2022-09-10T00:16:10.155Z,101535.58
2022-09-10T00:18:38.241Z,101535.80
2022-09-10T00:21:11.444Z,101533.62
2022-09-10T00:23:39.259Z,101540.38
2022-09-10T00:26:19.465Z,101531.52
2022-09-10T00:28:47.338Z,101530.90
2022-09-10T00:31:15.594Z,101536.30
2022-09-10T00:33:43.421Z,101541.82
2022-09-10T00:36:19.480Z,101540.94
2022-09-10T00:38:49.641Z,101545.13
2022-09-10T00:41:18.280Z,101538.55
2022-09-10T00:43:53.165Z,101537.51
2022-09-10T00:46:37.857Z,101521.91
2022-09-10T00:49:15.603Z,101524.79
2022-09-10T00:51:43.489Z,101514.75
2022-09-10T00:54:11.269Z,101525.41
2022-09-10T00:56:39.055Z,101523.22
2022-09-10T00:59:07.433Z,101524.03
2022-09-10T01:01:35.531Z,101527.14
2022-09-10T01:04:04.850Z,101512.88
2022-09-10T01:06:32.794Z,101505.98
2022-09-10T01:09:01.094Z,101512.98
2022-09-10T01:11:55.733Z,101513.05
2022-09-10T01:14:29.956Z,101513.05
2022-09-10T01:17:13.217Z,101516.88
2022-09-10T01:19:55.294Z,101524.20
2022-09-10T01:22:47.886Z,101520.41
2022-09-10T01:25:27.774Z,101524.76
2022-09-10T01:27:55.933Z,101530.05
2022-09-10T01:30:38.313Z,101525.67
2022-09-10T01:33:24.168Z,101526.55
2022-09-10T01:35:54.106Z,101527.73
2022-09-10T01:38:28.322Z,101521.87
2022-09-10T01:40:56.111Z,101522.27
2022-09-10T01:43:24.414Z,101520.21
2022-09-10T01:46:07.402Z,101512.40
2022-09-10T01:48:55.841Z,101512.00
2022-09-10T01:52:00.690Z,101525.15
2022-09-10T01:54:51.752Z,101520.57
2022-09-10T01:58:06.634Z,101525.24
2022-09-10T02:00:48.733Z,101517.43
2022-09-10T02:03:21.197Z,101521.62
2022-09-10T02:05:55.127Z,101510.17
2022-09-10T02:08:33.358Z,101515.57
2022-09-10T02:11:05.822Z,101507.13
2022-09-10T02:13:34.107Z,101510.86
2022-09-10T02:16:09.510Z,101507.23
2022-09-10T02:19:02.713Z,101511.12
2022-09-10T02:21:30.578Z,101498.40
2022-09-10T02:24:07.010Z,101497.29
2022-09-10T02:26:41.224Z,101506.74
2022-09-10T02:29:13.625Z,101496.93
2022-09-10T02:31:41.937Z,101500.56
2022-09-10T02:37:18.064Z,101498.01
2022-09-10T02:40:11.250Z,101503.44
2022-09-10T02:42:47.844Z,101497.35
2022-09-10T02:45:16.119Z,101494.05
2022-09-10T02:47:44.179Z,101494.05
2022-09-10T02:50:17.077Z,101502.59
2022-09-10T02:52:47.185Z,101502.85
2022-09-10T02:55:17.742Z,101500.16
2022-09-10T02:57:50.237Z,101503.34
2022-09-10T03:00:23.372Z,101503.86
2022-09-10T03:02:51.760Z,101500.23
2022-09-10T03:05:24.830Z,101497.52
2022-09-10T03:07:58.384Z,101490.69
2022-09-10T03:10:26.337Z,101491.11
2022-09-10T03:12:55.589Z,101496.57
2022-09-10T03:15:24.111Z,101487.09
2022-09-10T03:17:56.988Z,101504.55
2022-09-10T03:20:29.438Z,101498.70
2022-09-10T03:22:58.621Z,101506.58
2022-09-10T03:25:31.215Z,101494.67
2022-09-10T03:28:25.358Z,101505.86
2022-09-10T03:30:53.670Z,101515.08
2022-09-10T03:33:24.347Z,101509.55
2022-09-10T03:35:54.524Z,101514.32
2022-09-10T03:38:22.388Z,101523.55
2022-09-10T03:40:55.887Z,101517.98
2022-09-10T03:43:48.901Z,101528.77
2022-09-10T03:46:21.429Z,101519.30
2022-09-10T03:48:55.429Z,101520.05
2022-09-10T03:51:28.075Z,101528.94
2022-09-10T03:54:00.408Z,101523.94
2022-09-10T03:56:42.808Z,101530.05
2022-09-10T03:59:10.992Z,101525.41
2022-09-10T04:01:45.411Z,101518.45
2022-09-10T04:04:18.129Z,101521.45
2022-09-10T04:06:50.625Z,101523.48
2022-09-10T04:09:27.620Z,101527.20
2022-09-10T04:12:00.786Z,101519.66
2022-09-10T04:14:35.180Z,101515.11
2022-09-10T04:17:28.157Z,101510.53
2022-09-10T04:20:00.897Z,101519.20
2022-09-10T04:22:34.176Z,101517.98
2022-09-10T04:25:02.037Z,101516.77
2022-09-10T04:27:42.234Z,101517.70
2022-09-10T04:30:12.176Z,101519.10
2022-09-10T04:32:42.986Z,101510.20
2022-09-10T04:35:16.876Z,101514.65
2022-09-10T04:37:44.741Z,101512.59
2022-09-10T04:40:20.436Z,101518.28
2022-09-10T04:42:54.970Z,101522.47
2022-09-10T04:45:31.931Z,101526.00
2022-09-10T04:48:07.236Z,101515.05
2022-09-10T04:51:14.296Z,101512.23
2022-09-10T04:53:43.168Z,101506.97
2022-09-10T04:56:16.698Z,101516.88
2022-09-10T04:58:45.480Z,101519.75
2022-09-10T05:01:13.941Z,101524.52
2022-09-10T05:03:47.683Z,101521.55
2022-09-10T05:06:21.557Z,101529.69
2022-09-10T05:08:52.300Z,101526.36
2022-09-10T05:11:26.691Z,101524.20
2022-09-10T05:14:00.180Z,101526.91
2022-09-10T05:16:32.940Z,101524.85
2022-09-10T05:19:00.926Z,101538.06
2022-09-10T05:21:37.702Z,101534.50
2022-09-10T05:24:10.331Z,101536.46
2022-09-10T05:26:38.284Z,101530.61
2022-09-10T05:29:12.013Z,101534.30
2022-09-10T05:31:52.104Z,101539.24
2022-09-10T05:34:21.624Z,101541.30
2022-09-10T05:37:03.062Z,101543.72
2022-09-10T05:39:35.751Z,101544.02
2022-09-10T05:42:30.149Z,101547.70
2022-09-10T05:45:12.193Z,101544.57
2022-09-10T05:47:45.150Z,101550.42
2022-09-10T05:50:13.213Z,101551.60
2022-09-10T05:52:41.484Z,101542.77
2022-09-10T05:55:14.529Z,101543.98
2022-09-10T05:57:50.013Z,101552.61
2022-09-10T06:00:22.829Z,101550.62
2022-09-10T06:02:52.361Z,101557.94
2022-09-10T06:05:25.000Z,101558.17
2022-09-10T06:07:58.535Z,101558.73
2022-09-10T06:10:30.997Z,101554.61
2022-09-10T06:13:24.160Z,101569.48
2022-09-10T06:15:52.131Z,101559.28
2022-09-10T06:18:20.408Z,101556.77
2022-09-10T06:20:51.351Z,101555.00
2022-09-10T06:23:24.182Z,101555.45
2022-09-10T06:26:10.163Z,101550.29
2022-09-10T06:28:44.390Z,101566.70
2022-09-10T06:31:19.187Z,101576.91
2022-09-10T06:33:48.423Z,101569.98
2022-09-10T06:36:22.109Z,101572.85
2022-09-10T06:38:59.061Z,101577.88
2022-09-10T06:41:47.915Z,101573.30
2022-09-10T06:44:17.777Z,101573.41
2022-09-10T06:47:28.264Z,101581.71
2022-09-10T06:49:37.767Z,101581.81
2022-09-10T06:52:05.879Z,101584.78
2022-09-10T06:54:41.470Z,101586.81
2022-09-10T06:57:14.090Z,101585.73
2022-09-10T06:59:45.083Z,101587.17
2022-09-10T07:02:18.635Z,101599.63
2022-09-10T07:04:51.251Z,101603.09
2022-09-10T07:07:24.066Z,101605.71
2022-09-10T07:09:52.513Z,101603.23
2022-09-10T07:12:30.016Z,101597.86
2022-09-10T07:15:04.146Z,101600.02
2022-09-10T07:17:36.613Z,101597.50
2022-09-10T07:20:07.445Z,101597.21
2022-09-10T07:22:43.357Z,101599.50
2022-09-10T07:25:16.484Z,101598.48
2022-09-10T07:27:48.956Z,101601.36
2022-09-10T07:30:48.057Z,101609.14
2022-09-10T07:33:16.086Z,101612.41
2022-09-10T07:35:57.732Z,101607.57
2022-09-10T07:38:26.248Z,101615.12
2022-09-10T07:40:54.683Z,101617.28
2022-09-10T07:43:27.838Z,101626.37
2022-09-10T07:46:04.137Z,101624.34
2022-09-10T07:48:35.582Z,101629.74
2022-09-10T07:51:07.457Z,101633.01
2022-09-10T07:53:36.537Z,101640.43
2022-09-10T07:56:15.203Z,101638.47
2022-09-10T07:58:43.142Z,101637.00
2022-09-10T08:01:16.141Z,101639.52
2022-09-10T08:03:49.739Z,101639.06
2022-09-10T08:06:20.827Z,101641.09
2022-09-10T08:09:01.321Z,101646.48
2022-09-10T08:11:43.310Z,101646.22
2022-09-10T08:14:25.342Z,101649.00
2022-09-10T08:17:03.495Z,101654.13
2022-09-10T08:19:31.377Z,101659.43
2022-09-10T08:22:04.960Z,101657.50
2022-09-10T08:24:40.619Z,101653.87
2022-09-10T08:27:14.517Z,101656.45
2022-09-10T08:29:45.398Z,101657.44
2022-09-10T08:32:15.923Z,101645.08
2022-09-10T08:34:48.238Z,101662.44
2022-09-10T08:37:21.084Z,101661.72
2022-09-10T08:39:52.190Z,101663.02
2022-09-10T08:42:29.020Z,101658.19
2022-09-10T08:45:17.422Z,101661.16
2022-09-10T08:47:59.814Z,101660.05
2022-09-10T08:51:00.931Z,101666.16
2022-09-10T08:53:44.998Z,101678.63
2022-09-10T08:56:16.812Z,101670.94
2022-09-10T08:59:24.122Z,101682.19
2022-09-10T09:02:05.911Z,101683.89
2022-09-10T09:04:48.333Z,101686.38
2022-09-10T09:07:23.766Z,101684.70
2022-09-10T09:09:54.942Z,101685.55
2022-09-10T09:12:40.516Z,101695.85
2022-09-10T09:15:26.900Z,101693.92
2022-09-10T09:18:00.854Z,101685.49
2022-09-10T09:20:47.674Z,101687.62
2022-09-10T09:24:12.108Z,101696.84
2022-09-10T09:26:48.763Z,101691.15
2022-09-10T09:29:25.953Z,101701.12
2022-09-10T09:32:22.772Z,101698.70
2022-09-10T09:34:52.486Z,101701.48
2022-09-10T09:37:31.229Z,101700.07
2022-09-10T09:40:18.515Z,101704.29
2022-09-10T09:43:08.067Z,101703.44
2022-09-10T09:45:39.893Z,101692.81
2022-09-10T09:48:08.536Z,101694.87
2022-09-10T09:50:42.508Z,101689.58
2022-09-10T09:53:26.536Z,101688.82
2022-09-10T09:55:56.153Z,101690.30
2022-09-10T09:58:25.754Z,101688.07
2022-09-10T10:01:06.200Z,101690.36
2022-09-10T10:03:54.156Z,101679.84
2022-09-10T10:06:29.902Z,101677.12
2022-09-10T10:09:25.080Z,101668.23
2022-09-10T10:11:57.849Z,101682.22
2022-09-10T10:14:41.044Z,101677.12
2022-09-10T10:17:46.497Z,101675.45
2022-09-10T10:20:21.975Z,101666.23
2022-09-10T10:22:49.978Z,101668.65
2022-09-10T10:25:59.412Z,101673.91
2022-09-10T10:28:32.588Z,101684.80
2022-09-10T10:31:05.977Z,101679.99
2022-09-10T10:33:38.590Z,101674.93
2022-09-10T10:36:17.008Z,101672.87
2022-09-10T10:38:59.312Z,101673.69
2022-09-10T10:41:42.994Z,101675.91
2022-09-10T10:44:24.190Z,101673.49
2022-09-10T10:47:26.116Z,101669.53
2022-09-10T10:50:01.799Z,101671.46
2022-09-10T10:52:29.679Z,101667.84
2022-09-10T10:55:12.105Z,101657.93
2022-09-10T10:58:10.048Z,101654.88
2022-09-10T11:00:43.446Z,101656.62
2022-09-10T11:03:45.971Z,101646.25
2022-09-10T11:06:22.751Z,101639.55
2022-09-10T11:09:12.286Z,101638.51
2022-09-10T11:11:56.437Z,101635.20
2022-09-10T11:14:29.429Z,101635.43
2022-09-10T11:17:03.867Z,101646.16
2022-09-10T11:20:17.636Z,101644.33
2022-09-10T11:22:51.633Z,101637.55
2022-09-10T11:25:37.654Z,101645.41
2022-09-10T11:28:14.247Z,101652.70
2022-09-10T11:30:42.988Z,101644.59
2022-09-10T11:33:17.626Z,101650.27
2022-09-10T11:35:49.669Z,101639.87
2022-09-10T11:38:38.776Z,101644.48
2022-09-10T11:41:28.652Z,101638.34
2022-09-10T11:44:27.419Z,101629.09
2022-09-10T11:46:59.900Z,101622.62
2022-09-10T11:50:06.490Z,101634.62
2022-09-10T11:52:59.492Z,101636.31
2022-09-10T11:56:00.076Z,101642.46
2022-09-10T11:59:09.864Z,101642.00
2022-09-10T12:02:03.857Z,101638.73
2022-09-10T12:04:42.716Z,101643.24
2022-09-10T12:07:22.445Z,101635.53
2022-09-10T12:10:39.865Z,101629.91
2022-09-10T12:13:11.173Z,101620.95
2022-09-10T12:15:44.655Z,101618.98
2022-09-10T12:18:26.816Z,101624.97
2022-09-10T12:24:36.048Z,101615.78
2022-09-10T12:27:07.953Z,101611.14
2022-09-10T12:30:01.121Z,101610.78
2022-09-10T12:32:37.970Z,101616.60
2022-09-10T12:35:31.481Z,101621.63
2022-09-10T12:38:36.887Z,101618.92
2022-09-10T12:41:06.205Z,101607.97
2022-09-10T12:44:00.466Z,101604.99
2022-09-10T12:46:33.453Z,101601.27
2022-09-10T12:49:13.963Z,101597.99
2022-09-10T12:52:07.999Z,101595.09
2022-09-10T12:55:00.121Z,101587.27
2022-09-10T12:57:36.407Z,101581.71
2022-09-10T13:00:20.813Z,101591.42
2022-09-10T13:03:09.510Z,101584.46
2022-09-10T13:05:52.616Z,101580.50
2022-09-10T13:08:28.616Z,101590.02
2022-09-10T13:11:01.155Z,101584.88
2022-09-10T13:13:53.051Z,101596.33
2022-09-10T13:16:47.877Z,101600.02
2022-09-10T13:19:16.840Z,101600.45
2022-09-10T13:21:49.359Z,101590.02
2022-09-10T13:24:36.846Z,101595.05
2022-09-10T13:27:18.796Z,101586.95
2022-09-10T13:30:05.580Z,101589.85
2022-09-10T13:32:50.548Z,101591.91
2022-09-10T13:35:55.644Z,101591.12
2022-09-10T13:38:36.212Z,101589.88
2022-09-10T13:41:29.618Z,101574.91
2022-09-10T13:44:39.073Z,101574.45
2022-09-10T13:48:02.500Z,101561.87
2022-09-10T13:50:40.512Z,101565.10
2022-09-10T13:53:10.162Z,101556.05
2022-09-10T13:55:50.134Z,101561.57
2022-09-10T13:58:37.093Z,101542.45
2022-09-10T14:01:13.311Z,101540.71
2022-09-10T14:03:50.895Z,101545.32
2022-09-10T14:06:38.590Z,101553.66
2022-09-10T14:09:06.550Z,101554.12
2022-09-10T14:11:38.448Z,101553.69
2022-09-10T14:14:14.180Z,101561.93
2022-09-10T14:16:49.209Z,101563.07
2022-09-10T14:19:49.020Z,101553.37
2022-09-10T14:22:18.530Z,101547.97
2022-09-10T14:25:02.783Z,101555.72
2022-09-10T14:27:37.489Z,101558.98
2022-09-10T14:30:17.763Z,101548.63
2022-09-10T14:32:51.381Z,101550.59
2022-09-10T14:35:44.233Z,101554.45
2022-09-10T14:38:43.722Z,101549.24
2022-09-10T14:41:24.028Z,101544.80
2022-09-10T14:43:56.392Z,101542.73
2022-09-10T14:47:01.108Z,101530.64
2022-09-10T14:49:46.606Z,101532.30
2022-09-10T14:52:14.540Z,101528.16
2022-09-10T14:54:44.327Z,101525.24
2022-09-10T14:57:16.155Z,101516.91
2022-09-10T14:59:44.591Z,101521.02
2022-09-10T15:02:20.213Z,101518.90
2022-09-10T15:04:51.106Z,101533.32
2022-09-10T15:07:21.728Z,101525.41
2022-09-10T15:09:49.474Z,101520.73
2022-09-10T15:12:33.873Z,101525.64
2022-09-10T15:15:01.831Z,101527.89
2022-09-10T15:17:36.361Z,101537.38
2022-09-10T15:20:04.744Z,101515.73
2022-09-10T15:22:41.251Z,101523.19
2022-09-10T15:25:22.577Z,101532.73
2022-09-10T15:27:50.387Z,101536.07
2022-09-10T15:30:24.273Z,101528.58
2022-09-10T15:33:04.029Z,101531.09
2022-09-10T15:35:32.256Z,101533.55
2022-09-10T15:38:02.881Z,101531.88
2022-09-10T15:40:33.951Z,101535.94
2022-09-10T15:43:07.222Z,101524.76
2022-09-10T15:45:36.785Z,101524.63
2022-09-10T15:48:05.238Z,101532.50
2022-09-10T15:50:33.007Z,101527.92
2022-09-10T15:53:03.155Z,101532.08
2022-09-10T15:55:32.055Z,101532.50
2022-09-10T15:57:59.788Z,101523.31
2022-09-10T16:00:32.926Z,101522.01
2022-09-10T16:03:03.073Z,101525.70
2022-09-10T16:05:35.724Z,101531.49
2022-09-10T16:08:04.167Z,101539.70
2022-09-10T16:10:39.632Z,101533.88
2022-09-10T16:13:12.559Z,101537.90
2022-09-10T16:15:46.418Z,101537.02
2022-09-10T16:18:25.513Z,101539.44
2022-09-10T16:21:06.460Z,101540.65
2022-09-10T16:23:38.774Z,101531.82
2022-09-10T16:26:07.327Z,101537.21
2022-09-10T16:28:42.045Z,101540.88
2022-09-10T16:31:31.559Z,101546.56
2022-09-10T16:34:12.000Z,101550.68
2022-09-10T16:36:43.307Z,101547.74
2022-09-10T16:39:16.395Z,101550.03
2022-09-10T16:41:45.978Z,101559.91
2022-09-10T16:44:18.983Z,101561.93
2022-09-10T16:47:20.921Z,101554.84
2022-09-10T16:49:53.448Z,101564.58
2022-09-10T16:52:21.690Z,101567.81
2022-09-10T16:54:54.171Z,101579.81
2022-09-10T16:57:28.038Z,101579.36
2022-09-10T17:00:02.152Z,101587.56
2022-09-10T17:02:36.433Z,101592.44
2022-09-10T17:05:09.477Z,101596.09
2022-09-10T17:07:49.593Z,101599.37
2022-09-10T17:10:28.163Z,101597.24
2022-09-10T17:13:02.812Z,101597.50
2022-09-10T17:15:36.545Z,101593.29
2022-09-10T17:18:10.512Z,101603.42
2022-09-10T17:20:50.127Z,101582.98
2022-09-10T17:23:23.055Z,101595.34
2022-09-10T17:25:56.558Z,101593.16
2022-09-10T17:28:29.234Z,101599.63
2022-09-10T17:31:01.807Z,101599.79
2022-09-10T17:33:35.398Z,101597.08
2022-09-10T17:36:08.732Z,101595.34
2022-09-10T17:38:39.228Z,101604.01
2022-09-10T17:41:10.314Z,101603.72
2022-09-10T17:43:39.286Z,101606.07
2022-09-10T17:46:08.705Z,101614.57
2022-09-10T17:48:39.938Z,101620.98
2022-09-10T17:51:12.666Z,101618.43
2022-09-10T17:53:46.274Z,101625.75
2022-09-10T17:56:16.033Z,101630.46
2022-09-10T17:58:45.382Z,101631.57
2022-09-10T18:01:23.076Z,101637.27
2022-09-10T18:03:55.870Z,101644.91
2022-09-10T18:06:29.353Z,101647.43
2022-09-10T18:09:06.159Z,101653.91
2022-09-10T18:11:46.119Z,101656.13
2022-09-10T18:14:19.628Z,101659.85
2022-09-10T18:17:00.569Z,101659.95
2022-09-10T18:19:34.430Z,101658.65
2022-09-10T18:22:27.600Z,101663.09
2022-09-10T18:24:58.333Z,101661.16
2022-09-10T18:27:30.304Z,101664.04
2022-09-10T18:30:02.988Z,101661.62
2022-09-10T18:32:36.651Z,101662.90
2022-09-10T18:35:09.621Z,101665.88
2022-09-10T18:37:45.335Z,101677.05
2022-09-10T18:40:19.688Z,101685.72
2022-09-10T18:42:52.806Z,101680.32
2022-09-10T18:45:23.726Z,101685.72
2022-09-10T18:47:54.617Z,101690.30
2022-09-10T18:50:42.482Z,101686.57
2022-09-10T18:53:14.605Z,101700.63
2022-09-10T18:55:46.320Z,101697.36
2022-09-10T18:58:18.612Z,101703.15
2022-09-10T19:01:01.920Z,101702.30
2022-09-10T19:03:30.036Z,101707.69
2022-09-10T19:05:58.019Z,101708.08
2022-09-10T19:08:31.922Z,101699.77
2022-09-10T19:11:05.294Z,101710.89
2022-09-10T19:13:37.634Z,101716.59
2022-09-10T19:16:08.519Z,101720.28
2022-09-10T19:18:36.723Z,101717.86
2022-09-10T19:21:09.471Z,101721.95
2022-09-10T19:23:38.065Z,101724.85
2022-09-10T19:26:12.890Z,101726.06
2022-09-10T19:28:44.049Z,101737.61
2022-09-10T19:31:13.352Z,101735.84
2022-09-10T19:34:06.597Z,101733.78
2022-09-10T19:36:36.545Z,101734.99
2022-09-10T19:39:09.690Z,101731.63
2022-09-10T19:41:40.468Z,101736.13
2022-09-10T19:44:13.934Z,101733.62
2022-09-10T19:46:43.178Z,101729.04
2022-09-10T19:49:11.354Z,101734.08
2022-09-10T19:51:42.923Z,101731.55
2022-09-10T19:54:15.392Z,101745.16
2022-09-10T19:56:48.623Z,101749.25
2022-09-10T19:59:22.425Z,101743.85
2022-09-10T20:01:51.242Z,101745.06
2022-09-10T20:04:32.740Z,101747.12
2022-09-10T20:07:04.175Z,101749.05
2022-09-10T20:09:40.075Z,101747.28
2022-09-10T20:12:19.414Z,101750.20
2022-09-10T20:14:52.241Z,101744.02
2022-09-10T20:17:20.326Z,101755.95
2022-09-10T20:19:48.440Z,101749.80
2022-09-10T20:22:22.030Z,101746.92
2022-09-10T20:24:57.701Z,101759.02
2022-09-10T20:27:27.740Z,101743.49
2022-09-10T20:30:07.863Z,101753.82
2022-09-10T20:32:38.244Z,101748.59
2022-09-10T20:35:18.482Z,101750.20
2022-09-10T20:37:51.818Z,101764.12
2022-09-10T20:40:25.592Z,101751.77
2022-09-10T20:42:59.026Z,101754.64
2022-09-10T20:45:26.952Z,101752.22
2022-09-10T20:48:11.793Z,101753.46
2022-09-10T20:51:04.366Z,101757.09
2022-09-10T20:53:37.678Z,101748.79
2022-09-10T20:56:10.312Z,101752.52
2022-09-10T20:58:56.818Z,101756.15
2022-09-10T21:01:41.363Z,101753.89
2022-09-10T21:04:17.524Z,101752.58
2022-09-10T21:06:48.324Z,101749.61
2022-09-10T21:09:30.868Z,101747.38
2022-09-10T21:12:07.083Z,101751.93
2022-09-10T21:14:38.696Z,101754.64
2022-09-10T21:17:15.976Z,101753.70
2022-09-10T21:19:48.976Z,101759.80
2022-09-10T21:22:29.139Z,101759.80
2022-09-10T21:25:09.290Z,101759.80
2022-09-10T21:27:43.617Z,101759.80
2022-09-10T21:30:17.224Z,101762.20
2022-09-10T21:32:49.711Z,101757.75
2022-09-10T21:35:22.311Z,101765.95
2022-09-10T21:37:55.044Z,101763.89
2022-09-10T21:40:27.538Z,101764.65
2022-09-10T21:42:55.420Z,101766.31
2022-09-10T21:45:29.244Z,101767.98
2022-09-10T21:48:07.791Z,101770.86
2022-09-10T21:50:35.761Z,101784.36
2022-09-10T21:53:15.673Z,101783.45
2022-09-10T21:55:44.045Z,101785.02
2022-09-10T21:58:12.398Z,101780.54
2022-09-10T22:00:45.081Z,101788.45
2022-09-10T22:03:13.089Z,101788.91
2022-09-10T22:05:53.136Z,101782.20
2022-09-10T22:08:24.012Z,101783.16
2022-09-10T22:10:54.166Z,101790.31
2022-09-10T22:13:24.119Z,101791.06
2022-09-10T22:15:59.176Z,101786.42
2022-09-10T22:18:39.384Z,101784.36
2022-09-10T22:21:12.234Z,101783.45
2022-09-10T22:23:44.921Z,101782.47
2022-09-10T22:26:32.642Z,101778.67
2022-09-10T22:29:06.200Z,101777.82
2022-09-10T22:31:38.658Z,101781.45
2022-09-10T22:34:16.397Z,101780.60
2022-09-10T22:36:45.312Z,101781.45
2022-09-10T22:40:00.754Z,101774.00
2022-09-10T22:42:28.770Z,101773.87
2022-09-10T22:44:59.194Z,101777.13
2022-09-10T22:47:32.743Z,101781.48
2022-09-10T22:50:05.426Z,101776.58
2022-09-10T22:52:37.964Z,101767.03
2022-09-10T22:55:09.037Z,101767.66
2022-09-10T22:57:37.493Z,101778.70
2022-09-10T23:00:10.026Z,101776.94
2022-09-10T23:02:39.026Z,101776.94
2022-09-10T23:05:09.923Z,101788.35
2022-09-10T23:07:42.481Z,101790.77
2022-09-10T23:10:22.500Z,101791.13
2022-09-10T23:13:00.402Z,101797.64
2022-09-10T23:15:31.736Z,101800.32
2022-09-10T23:18:04.342Z,101797.31
2022-09-10T23:20:39.434Z,101797.31
2022-09-10T23:23:12.921Z,101798.98
2022-09-10T23:25:44.220Z,101804.77
2022-09-10T23:28:15.012Z,101801.27
2022-09-10T23:30:47.562Z,101805.98
2022-09-10T23:33:27.738Z,101799.37
2022-09-10T23:36:09.694Z,101796.49
2022-09-10T23:38:40.974Z,101796.49
2022-09-10T23:41:09.893Z,101792.73
2022-09-10T23:43:43.707Z,101798.06
2022-09-10T23:46:14.743Z,101789.76
2022-09-10T23:48:47.707Z,101793.62
2022-09-10T23:51:16.686Z,101788.19
2022-09-10T23:53:49.251Z,101782.79
2022-09-10T23:56:18.649Z,101781.95
2022-09-10T23:59:01.255Z,101778.22
